Terminal Aerodrome Forecast
Issued by NWS Portland, OR

Home | Current Version | Previous Version | Text Only | Print | Product List | Glossary On
Versions: 1 2 3 4 5 6 7 8 9 10 11 12 13 14
000
FTUS46 KPQR 151731
TAFAST
TAF
KAST 151731Z 1518/1618 00000KT 1SM -RA BR OVC006
     FM151930 31010KT P6SM -SHRA OVC035
     FM160200 30010KT P6SM VCSH BKN035
     FM160500 27006KT P6SM BKN035=

USA.gov is the U.S. government's official web portal to all federal, state and local government web resources and services.